createdAt,value
2023-04-21T00:01:14.927Z,99720.97
2023-04-21T00:03:43.240Z,99717.47
2023-04-21T00:06:11.002Z,99721.81
2023-04-21T00:08:40.796Z,99708.53
2023-04-21T00:11:08.489Z,99712.03
2023-04-21T00:13:36.289Z,99705.88
2023-04-21T00:16:03.939Z,99709.38
2023-04-21T00:18:31.852Z,99706.59
2023-04-21T00:20:59.631Z,99703.09
2023-04-21T00:23:27.193Z,99697.78
2023-04-21T00:25:54.859Z,99693.44
2023-04-21T00:28:22.504Z,99691.63
2023-04-21T00:30:50.485Z,99696.94
2023-04-21T00:33:18.309Z,99694.28
2023-04-21T00:35:45.902Z,99687.16
2023-04-21T00:38:13.581Z,99686.31
2023-04-21T00:40:41.173Z,99686.31
2023-04-21T00:43:08.893Z,99691.63
2023-04-21T00:45:36.657Z,99686.31
2023-04-21T00:48:04.450Z,99689.09
2023-04-21T00:50:32.569Z,99681.97
2023-04-21T00:53:00.168Z,99683.78
2023-04-21T00:55:28.162Z,99684.63
2023-04-21T00:57:55.827Z,99683.66
2023-04-21T01:00:23.482Z,99689.72
2023-04-21T01:02:51.268Z,99681.59
2023-04-21T01:05:19.359Z,99686.91
2023-04-21T01:07:47.397Z,99685.22
2023-04-21T01:10:15.258Z,99685.22
2023-04-21T01:12:43.218Z,99681.75
2023-04-21T01:15:11.235Z,99688.84
2023-04-21T01:17:40.476Z,99676.53
2023-04-21T01:20:09.101Z,99688.00
2023-04-21T01:22:36.912Z,99689.81
2023-04-21T01:25:04.850Z,99688.13
2023-04-21T01:27:32.413Z,99685.59
2023-04-21T01:30:00.030Z,99680.28
2023-04-21T01:32:28.085Z,99676.78
2023-04-21T01:34:56.877Z,99676.91
2023-04-21T01:37:24.484Z,99677.88
2023-04-21T01:39:54.300Z,99682.31
2023-04-21T01:42:21.921Z,99677.13
2023-04-21T01:44:50.117Z,99687.88
2023-04-21T01:47:17.737Z,99684.38
2023-04-21T01:49:45.317Z,99680.88
2023-04-21T01:52:12.922Z,99664.97
2023-04-21T01:54:40.572Z,99661.44
2023-04-21T01:57:08.976Z,99666.66
2023-04-21T01:59:36.612Z,99655.88
2023-04-21T02:02:04.460Z,99667.47
2023-04-21T02:04:32.310Z,99679.91
2023-04-21T02:07:00.127Z,99678.22
2023-04-21T02:09:27.794Z,99677.38
2023-04-21T02:11:55.545Z,99653.47
2023-04-21T02:14:23.140Z,99652.63
2023-04-21T02:16:50.817Z,99642.84
2023-04-21T02:19:18.931Z,99664.09
2023-04-21T02:21:47.101Z,99680.28
2023-04-21T02:24:14.882Z,99666.38
2023-04-21T02:26:42.465Z,99666.50
2023-04-21T02:29:10.032Z,99657.81
2023-04-21T02:31:49.732Z,99642.84
2023-04-21T02:34:22.412Z,99648.16
2023-04-21T02:36:50.051Z,99655.16
2023-04-21T02:39:17.819Z,99650.94
2023-04-21T02:41:45.664Z,99656.34
2023-04-21T02:44:13.319Z,99608.56
2023-04-21T02:46:41.520Z,99610.25
2023-04-21T02:49:09.160Z,99633.41
2023-04-21T02:51:36.775Z,99660.22
2023-04-21T02:54:04.363Z,99658.75
2023-04-21T02:56:32.101Z,99653.78
2023-04-21T02:58:59.792Z,99647.25
2023-04-21T03:01:27.454Z,99649.19
2023-04-21T03:03:55.193Z,99670.41
2023-04-21T03:06:22.964Z,99661.72
2023-04-21T03:08:50.619Z,99667.03
2023-04-21T03:11:18.534Z,99660.63
2023-04-21T03:13:46.295Z,99656.91
2023-04-21T03:16:14.330Z,99661.13
2023-04-21T03:18:41.970Z,99650.53
2023-04-21T03:21:10.079Z,99662.00
2023-04-21T03:23:38.044Z,99657.63
2023-04-21T03:26:05.619Z,99669.81
2023-04-21T03:28:33.232Z,99662.81
2023-04-21T03:31:00.809Z,99663.69
2023-04-21T03:33:28.425Z,99660.88
2023-04-21T03:35:56.402Z,99652.81
2023-04-21T03:38:23.985Z,99649.81
2023-04-21T03:40:51.600Z,99650.41
2023-04-21T03:43:19.711Z,99656.25
2023-04-21T03:45:47.363Z,99656.84
2023-04-21T03:48:15.321Z,99659.16
2023-04-21T03:50:42.965Z,99655.16
2023-04-21T03:53:10.543Z,99663.75
2023-04-21T03:55:38.100Z,99646.63
2023-04-21T03:58:05.775Z,99640.19
2023-04-21T04:00:33.695Z,99652.66
2023-04-21T04:03:01.397Z,99662.56
2023-04-21T04:05:29.597Z,99653.00
2023-04-21T04:07:57.200Z,99653.72
2023-04-21T04:10:24.794Z,99656.38
2023-04-21T04:12:52.411Z,99651.78
2023-04-21T04:15:20.194Z,99645.41
2023-04-21T04:17:47.841Z,99640.94
2023-04-21T04:20:15.498Z,99640.94
2023-04-21T04:22:43.100Z,99642.75
2023-04-21T04:25:13.265Z,99635.75
2023-04-21T04:27:41.423Z,99651.78
2023-04-21T04:30:09.579Z,99653.63
2023-04-21T04:32:38.288Z,99657.25
2023-04-21T04:35:05.952Z,99658.06
2023-04-21T04:37:34.902Z,99649.38
2023-04-21T04:40:02.570Z,99656.38
2023-04-21T04:42:30.519Z,99660.88
2023-04-21T04:45:01.877Z,99653.00
2023-04-21T04:47:29.865Z,99656.38
2023-04-21T04:49:59.506Z,99654.44
2023-04-21T04:52:27.139Z,99649.03
2023-04-21T04:54:54.771Z,99649.75
2023-04-21T04:57:22.473Z,99655.91
2023-04-21T04:59:50.112Z,99646.97
2023-04-21T05:02:18.180Z,99650.34
2023-04-21T05:04:45.965Z,99653.75
2023-04-21T05:07:13.747Z,99651.81
2023-04-21T05:09:41.311Z,99663.16
2023-04-21T05:12:09.367Z,99654.94
2023-04-21T05:14:37.632Z,99656.41
2023-04-21T05:17:05.323Z,99647.47
2023-04-21T05:19:33.054Z,99657.88
2023-04-21T05:22:02.090Z,99652.28
2023-04-21T05:24:29.797Z,99659.03
2023-04-21T05:26:58.168Z,99645.66
2023-04-21T05:29:25.807Z,99662.19
2023-04-21T05:31:53.525Z,99655.78
2023-04-21T05:34:21.544Z,99664.47
2023-04-21T05:36:49.349Z,99663.41
2023-04-21T05:39:18.301Z,99672.09
2023-04-21T05:41:46.053Z,99664.88
2023-04-21T05:44:13.928Z,99666.56
2023-04-21T05:46:41.625Z,99671.59
2023-04-21T05:49:09.601Z,99666.28
2023-04-21T05:51:38.119Z,99661.69
2023-04-21T05:54:05.797Z,99667.75
2023-04-21T05:56:33.921Z,99667.50
2023-04-21T05:59:01.533Z,99665.31
2023-04-21T06:01:29.195Z,99667.63
2023-04-21T06:03:57.707Z,99658.28
2023-04-21T06:06:25.598Z,99657.09
2023-04-21T06:08:53.221Z,99650.44
2023-04-21T06:11:20.926Z,99649.19
2023-04-21T06:13:48.773Z,99652.34
2023-04-21T06:16:16.477Z,99645.94
2023-04-21T06:18:44.638Z,99639.38
2023-04-21T06:21:12.279Z,99646.97
2023-04-21T06:23:39.932Z,99651.00
2023-04-21T06:26:07.763Z,99646.28
2023-04-21T06:28:35.938Z,99644.91
2023-04-21T06:31:05.317Z,99643.56
2023-04-21T06:33:34.704Z,99643.16
2023-04-21T06:36:02.372Z,99648.09
2023-04-21T06:38:30.119Z,99647.72
2023-04-21T06:41:00.136Z,99645.53
2023-04-21T06:43:27.844Z,99644.91
2023-04-21T06:45:55.545Z,99646.91
2023-04-21T06:48:24.671Z,99638.28
2023-04-21T06:50:52.392Z,99642.84
2023-04-21T06:53:22.155Z,99647.50
2023-04-21T06:55:49.984Z,99655.66
2023-04-21T06:58:19.814Z,99652.50
2023-04-21T07:00:48.870Z,99644.97
2023-04-21T07:03:16.826Z,99657.03
2023-04-21T07:05:45.215Z,99652.16
2023-04-21T07:08:13.065Z,99648.09
2023-04-21T07:10:41.309Z,99645.78
2023-04-21T07:13:10.136Z,99649.03
2023-04-21T07:15:38.099Z,99642.56
2023-04-21T07:18:06.735Z,99636.97
2023-04-21T07:20:34.660Z,99638.78
2023-04-21T07:23:02.646Z,99642.31
2023-04-21T07:25:30.914Z,99636.25
2023-04-21T07:27:58.724Z,99645.22
2023-04-21T07:30:26.820Z,99644.78
2023-04-21T07:32:54.825Z,99645.03
2023-04-21T07:35:22.595Z,99639.13
2023-04-21T07:37:50.447Z,99640.22
2023-04-21T07:40:18.494Z,99640.38
2023-04-21T07:42:46.915Z,99644.88
2023-04-21T07:45:14.808Z,99647.53
2023-04-21T07:47:43.285Z,99644.75
2023-04-21T07:50:11.312Z,99640.97
2023-04-21T07:52:39.092Z,99638.88
2023-04-21T07:55:07.627Z,99649.25
2023-04-21T07:57:38.652Z,99637.50
2023-04-21T08:00:06.494Z,99633.56
2023-04-21T08:02:34.614Z,99626.03
2023-04-21T08:05:02.570Z,99629.03
2023-04-21T08:07:31.211Z,99628.63
2023-04-21T08:10:00.468Z,99622.88
2023-04-21T08:12:28.358Z,99628.50
2023-04-21T08:14:56.262Z,99630.06
2023-04-21T08:17:24.318Z,99639.50
2023-04-21T08:19:52.866Z,99626.03
2023-04-21T08:22:20.781Z,99635.47
2023-04-21T08:24:48.730Z,99634.19
2023-04-21T08:27:16.635Z,99628.44
2023-04-21T08:29:44.404Z,99641.38
2023-04-21T08:32:13.383Z,99632.81
2023-04-21T08:34:41.298Z,99637.03
2023-04-21T08:37:09.101Z,99643.25
2023-04-21T08:39:36.946Z,99643.25
2023-04-21T08:42:04.785Z,99638.84
2023-04-21T08:44:33.023Z,99649.53
2023-04-21T08:47:00.980Z,99647.84
2023-04-21T08:49:28.880Z,99654.03
2023-04-21T08:51:56.664Z,99646.59
2023-04-21T08:54:24.830Z,99650.41
2023-04-21T08:56:56.972Z,99646.91
2023-04-21T08:59:32.711Z,99644.09
2023-04-21T09:02:00.736Z,99642.13
2023-04-21T09:04:28.854Z,99645.81
2023-04-21T09:06:57.542Z,99640.91
2023-04-21T09:09:25.482Z,99635.97
2023-04-21T09:11:53.460Z,99640.03
2023-04-21T09:14:21.412Z,99637.81
2023-04-21T09:16:49.345Z,99642.84
2023-04-21T09:19:18.632Z,99639.19
2023-04-21T09:21:46.827Z,99635.53
2023-04-21T09:24:14.733Z,99638.06
2023-04-21T09:26:42.591Z,99626.25
2023-04-21T09:29:10.648Z,99634.97
2023-04-21T09:31:39.265Z,99638.50
2023-04-21T09:34:07.453Z,99634.66
2023-04-21T09:36:35.864Z,99633.53
2023-04-21T09:41:34.640Z,99637.50
2023-04-21T09:44:16.635Z,99630.19
2023-04-21T09:46:45.218Z,99631.72
2023-04-21T09:49:13.355Z,99634.94
2023-04-21T09:54:25.975Z,99622.13
2023-04-21T09:56:57.925Z,99625.47
2023-04-21T09:59:25.709Z,99620.25
2023-04-21T10:01:53.470Z,99616.28
2023-04-21T10:04:23.090Z,99613.50
2023-04-21T10:06:51.297Z,99601.13
2023-04-21T10:09:19.197Z,99596.69
2023-04-21T10:11:47.004Z,99590.31
2023-04-21T10:14:15.255Z,99596.25
2023-04-21T10:16:43.797Z,99598.88
2023-04-21T10:19:12.845Z,99593.72
2023-04-21T10:21:40.871Z,99582.97
2023-04-21T10:24:08.834Z,99581.06
2023-04-21T10:26:36.840Z,99575.75
2023-04-21T10:29:05.133Z,99576.63
2023-04-21T10:31:33.009Z,99580.47
2023-04-21T10:34:01.191Z,99591.34
2023-04-21T10:36:29.024Z,99588.84
2023-04-21T10:38:56.829Z,99595.59
2023-04-21T10:41:26.394Z,99587.06
2023-04-21T10:43:54.213Z,99589.19
2023-04-21T10:46:22.159Z,99582.47
2023-04-21T10:48:50.183Z,99579.44
2023-04-21T10:51:18.085Z,99565.16
2023-04-21T10:53:47.923Z,99570.16
2023-04-21T10:56:16.037Z,99571.97
2023-04-21T10:58:43.801Z,99571.94
2023-04-21T11:01:11.767Z,99565.88
2023-04-21T11:03:39.893Z,99574.72
2023-04-21T11:06:08.193Z,99576.72
2023-04-21T11:08:38.181Z,99576.69
2023-04-21T11:11:06.619Z,99569.13
2023-04-21T11:13:35.244Z,99559.53
2023-04-21T11:16:03.292Z,99558.53
2023-04-21T11:18:31.868Z,99564.56
2023-04-21T11:20:59.770Z,99563.56
2023-04-21T11:23:27.642Z,99561.91
2023-04-21T11:25:56.169Z,99561.56
2023-04-21T11:28:24.151Z,99552.78
2023-04-21T11:30:52.622Z,99551.34
2023-04-21T11:33:20.674Z,99539.97
2023-04-21T11:35:48.766Z,99525.59
2023-04-21T11:38:18.865Z,99524.09
2023-04-21T11:40:46.926Z,99526.28
2023-04-21T11:43:15.208Z,99524.78
2023-04-21T11:45:43.011Z,99521.78
2023-04-21T11:48:11.748Z,99513.41
2023-04-21T11:50:39.564Z,99512.38
2023-04-21T11:53:07.457Z,99504.84
2023-04-21T11:55:37.836Z,99501.97
2023-04-21T11:58:06.211Z,99495.59
2023-04-21T12:00:34.104Z,99504.69
2023-04-21T12:03:02.173Z,99492.69
2023-04-21T12:05:30.069Z,99490.31
2023-04-21T12:07:58.311Z,99489.16
2023-04-21T12:10:26.619Z,99486.16
2023-04-21T12:12:54.473Z,99479.63
2023-04-21T12:15:23.504Z,99485.38
2023-04-21T12:17:51.506Z,99482.44
2023-04-21T12:20:19.954Z,99480.72
2023-04-21T12:22:47.854Z,99478.28
2023-04-21T12:25:15.858Z,99476.25
2023-04-21T12:27:43.687Z,99477.69
2023-04-21T12:30:11.582Z,99473.00
2023-04-21T12:32:39.958Z,99463.16
2023-04-21T12:35:07.778Z,99469.59
2023-04-21T12:37:35.543Z,99462.16
2023-04-21T12:40:03.603Z,99454.78
2023-04-21T12:42:31.452Z,99455.06
2023-04-21T12:44:59.359Z,99460.38
2023-04-21T12:47:27.293Z,99453.84
2023-04-21T12:49:55.246Z,99447.34
2023-04-21T12:52:23.160Z,99449.66
2023-04-21T12:54:51.529Z,99438.88
2023-04-21T12:57:20.027Z,99435.88
2023-04-21T12:59:48.213Z,99430.28
2023-04-21T13:02:16.609Z,99426.91
2023-04-21T13:04:44.662Z,99426.78
2023-04-21T13:07:12.640Z,99418.88
2023-04-21T13:09:41.148Z,99414.78
2023-04-21T13:12:08.975Z,99406.53
2023-04-21T13:14:36.872Z,99402.41
2023-04-21T13:17:05.727Z,99392.81
2023-04-21T13:19:33.740Z,99396.56
2023-04-21T13:22:02.510Z,99390.91
2023-04-21T13:24:30.565Z,99389.22
2023-04-21T13:26:58.755Z,99384.88
2023-04-21T13:29:30.445Z,99382.78
2023-04-21T13:31:58.634Z,99367.53
2023-04-21T13:34:27.135Z,99373.59
2023-04-21T13:36:55.085Z,99368.34
2023-04-21T13:39:23.533Z,99359.56
2023-04-21T13:41:53.505Z,99357.41
2023-04-21T13:44:22.727Z,99353.22
2023-04-21T13:46:52.544Z,99353.75
2023-04-21T13:49:20.529Z,99355.66
2023-04-21T13:51:48.405Z,99343.56
2023-04-21T13:54:16.466Z,99344.59
2023-04-21T13:56:44.390Z,99338.28
2023-04-21T13:59:15.343Z,99333.03
2023-04-21T14:01:43.402Z,99329.66
2023-04-21T14:04:11.450Z,99321.84
2023-04-21T14:06:39.496Z,99321.16
2023-04-21T14:09:09.314Z,99318.16
2023-04-21T14:11:37.748Z,99311.41
2023-04-21T14:16:36.503Z,99311.81
2023-04-21T14:19:04.519Z,99303.13
2023-04-21T14:21:32.950Z,99308.19
2023-04-21T14:24:01.486Z,99305.09
2023-04-21T14:26:29.403Z,99309.09
2023-04-21T14:28:57.209Z,99305.00
2023-04-21T14:31:25.208Z,99297.28
2023-04-21T14:33:53.126Z,99299.19
2023-04-21T14:36:21.602Z,99293.28
2023-04-21T14:38:49.556Z,99284.09
2023-04-21T14:41:17.456Z,99286.97
2023-04-21T14:43:47.592Z,99282.78
2023-04-21T14:46:16.989Z,99278.41
2023-04-21T14:48:45.381Z,99278.41
2023-04-21T14:51:13.259Z,99283.53
2023-04-21T14:53:41.657Z,99273.72
2023-04-21T14:56:09.480Z,99277.91
2023-04-21T14:58:37.444Z,99266.56
2023-04-21T15:01:06.048Z,99263.94
2023-04-21T15:03:34.067Z,99266.53
2023-04-21T15:06:02.406Z,99261.34
2023-04-21T15:08:30.438Z,99254.81
2023-04-21T15:10:58.144Z,99260.78
2023-04-21T15:13:26.573Z,99257.16
2023-04-21T15:15:54.408Z,99253.34
2023-04-21T15:18:22.267Z,99252.88
2023-04-21T15:20:50.050Z,99251.03
2023-04-21T15:23:17.905Z,99244.63
2023-04-21T15:25:46.798Z,99243.44
2023-04-21T15:28:15.040Z,99243.22
2023-04-21T15:30:42.950Z,99240.34
2023-04-21T15:33:11.762Z,99238.50
2023-04-21T15:35:39.597Z,99230.41
2023-04-21T15:38:08.268Z,99219.25
2023-04-21T15:40:39.274Z,99231.69
2023-04-21T15:43:11.554Z,99228.81
2023-04-21T15:45:39.562Z,99216.00
2023-04-21T15:48:07.501Z,99228.09
2023-04-21T15:50:35.791Z,99222.50
2023-04-21T15:53:03.584Z,99220.63
2023-04-21T15:55:31.343Z,99214.41
2023-04-21T15:57:59.278Z,99204.19
2023-04-21T16:00:27.187Z,99205.22
2023-04-21T16:02:56.295Z,99202.91
2023-04-21T16:05:27.428Z,99201.88
2023-04-21T16:07:56.832Z,99194.44
2023-04-21T16:10:25.094Z,99187.44
2023-04-21T16:12:52.916Z,99184.22
2023-04-21T16:15:24.773Z,99186.59
2023-04-21T16:17:53.015Z,99182.66
2023-04-21T16:20:20.961Z,99174.19
2023-04-21T16:22:48.753Z,99167.16
2023-04-21T16:25:19.274Z,99164.28
2023-04-21T16:27:48.191Z,99163.47
2023-04-21T16:30:16.542Z,99165.59
2023-04-21T16:32:44.582Z,99158.56
2023-04-21T16:35:12.510Z,99156.94
2023-04-21T16:37:42.895Z,99154.25
2023-04-21T16:40:11.576Z,99146.91
2023-04-21T16:42:39.494Z,99145.25
2023-04-21T16:45:07.439Z,99144.75
2023-04-21T16:47:41.336Z,99143.41
2023-04-21T16:50:10.287Z,99138.97
2023-04-21T16:52:39.493Z,99133.97
2023-04-21T16:55:07.526Z,99130.06
2023-04-21T16:57:35.555Z,99128.41
2023-04-21T17:00:05.799Z,99122.56
2023-04-21T17:02:33.744Z,99126.28
2023-04-21T17:05:01.838Z,99130.38
2023-04-21T17:07:31.622Z,99140.66
2023-04-21T17:09:59.472Z,99135.13
2023-04-21T17:12:27.310Z,99134.28
2023-04-21T17:14:55.534Z,99132.28
2023-04-21T17:17:24.327Z,99129.22
2023-04-21T17:19:52.542Z,99130.72
2023-04-21T17:22:20.380Z,99129.34
2023-04-21T17:24:53.592Z,99130.84
2023-04-21T17:27:22.046Z,99136.88
2023-04-21T17:29:51.005Z,99132.59
2023-04-21T17:32:18.980Z,99124.78
2023-04-21T17:34:46.926Z,99128.38
2023-04-21T17:37:15.780Z,99125.59
2023-04-21T17:39:43.742Z,99130.50
2023-04-21T17:42:12.537Z,99131.06
2023-04-21T17:44:42.147Z,99135.59
2023-04-21T17:47:10.002Z,99131.78
2023-04-21T17:49:38.056Z,99130.00
2023-04-21T17:52:06.054Z,99124.69
2023-04-21T17:54:34.406Z,99122.53
2023-04-21T17:57:03.061Z,99116.34
2023-04-21T17:59:31.000Z,99119.84
2023-04-21T18:01:59.410Z,99123.00
2023-04-21T18:04:29.968Z,99121.00
2023-04-21T18:06:59.226Z,99116.91
2023-04-21T18:09:27.192Z,99112.00
2023-04-21T18:11:55.417Z,99118.22
2023-04-21T18:14:23.906Z,99114.69
2023-04-21T18:16:51.784Z,99122.13
2023-04-21T18:19:20.305Z,99121.44
2023-04-21T18:21:48.126Z,99120.31
2023-04-21T18:24:15.930Z,99120.41
2023-04-21T18:26:43.930Z,99125.38
2023-04-21T18:29:11.799Z,99130.34
2023-04-21T18:31:40.181Z,99131.78
2023-04-21T18:34:09.095Z,99135.19
2023-04-21T18:36:38.626Z,99142.34
2023-04-21T18:39:06.700Z,99134.38
2023-04-21T18:41:34.934Z,99129.91
2023-04-21T18:44:03.725Z,99123.97
2023-04-21T18:46:31.543Z,99125.84
2023-04-21T18:48:59.577Z,99127.59
2023-04-21T18:51:27.592Z,99132.97
2023-04-21T18:53:55.602Z,99130.97
2023-04-21T18:56:23.867Z,99140.69
2023-04-21T18:58:51.757Z,99139.34
2023-04-21T19:01:19.630Z,99135.50
2023-04-21T19:03:47.948Z,99140.38
2023-04-21T19:06:15.946Z,99148.75
2023-04-21T19:08:44.493Z,99156.06
2023-04-21T19:11:12.434Z,99150.69
2023-04-21T19:13:40.312Z,99145.28
2023-04-21T19:16:08.966Z,99152.50
2023-04-21T19:18:36.926Z,99150.75
2023-04-21T19:21:06.521Z,99154.25
2023-04-21T19:23:34.279Z,99152.56
2023-04-21T19:26:05.393Z,99158.84
2023-04-21T19:28:33.134Z,99157.16
2023-04-21T19:31:01.028Z,99160.16
2023-04-21T19:33:29.347Z,99155.13
2023-04-21T19:35:57.222Z,99153.44
2023-04-21T19:38:25.205Z,99150.44
2023-04-21T19:40:53.129Z,99160.28
2023-04-21T19:43:21.851Z,99148.91
2023-04-21T19:45:50.438Z,99155.78
2023-04-21T19:48:18.926Z,99152.09
2023-04-21T19:50:47.218Z,99152.63
2023-04-21T19:53:15.179Z,99143.59
2023-04-21T19:55:43.195Z,99145.25
2023-04-21T19:58:11.776Z,99134.03
2023-04-21T20:00:39.685Z,99130.84
2023-04-21T20:03:07.859Z,99146.22
2023-04-21T20:05:35.928Z,99163.44
2023-04-21T20:08:03.709Z,99163.75
2023-04-21T20:10:38.478Z,99167.72
2023-04-21T20:13:06.295Z,99187.47
2023-04-21T20:15:34.353Z,99215.34
2023-04-21T20:18:02.388Z,99255.59
2023-04-21T20:20:31.191Z,99242.81
2023-04-21T20:22:59.727Z,99251.03
2023-04-21T20:25:27.605Z,99233.81
2023-04-21T20:27:55.418Z,99219.84
2023-04-21T20:30:23.278Z,99209.78
2023-04-21T20:32:51.429Z,99189.94
2023-04-21T20:35:20.118Z,99167.81
2023-04-21T20:37:48.182Z,99159.72
2023-04-21T20:40:16.128Z,99154.84
2023-04-21T20:42:45.100Z,99139.13
2023-04-21T20:45:13.143Z,99130.28
2023-04-21T20:47:41.900Z,99148.13
2023-04-21T20:50:10.233Z,99162.16
2023-04-21T20:52:38.101Z,99170.16
2023-04-21T20:55:06.575Z,99159.78
2023-04-21T20:57:34.496Z,99154.78
2023-04-21T21:00:02.902Z,99164.06
2023-04-21T21:02:30.868Z,99161.84
2023-04-21T21:04:58.805Z,99175.31
2023-04-21T21:07:26.767Z,99174.97
2023-04-21T21:09:54.680Z,99188.44
2023-04-21T21:12:23.294Z,99189.44
2023-04-21T21:14:51.029Z,99191.25
2023-04-21T21:17:19.658Z,99190.25
2023-04-21T21:19:47.575Z,99187.59
2023-04-21T21:22:15.434Z,99187.91
2023-04-21T21:24:43.699Z,99187.22
2023-04-21T21:27:11.665Z,99186.50
2023-04-21T21:29:39.832Z,99177.53
2023-04-21T21:32:08.141Z,99188.22
2023-04-21T21:34:36.016Z,99194.09
2023-04-21T21:37:05.151Z,99191.13
2023-04-21T21:39:33.824Z,99185.47
2023-04-21T21:42:01.670Z,99186.72
2023-04-21T21:44:29.389Z,99189.06
2023-04-21T21:46:57.318Z,99179.75
2023-04-21T21:49:25.800Z,99173.28
2023-04-21T21:51:54.785Z,99181.81
2023-04-21T21:54:22.562Z,99174.53
2023-04-21T21:56:50.249Z,99177.03
2023-04-21T21:59:18.163Z,99173.53
2023-04-21T22:01:46.701Z,99165.34
2023-04-21T22:04:14.571Z,99174.91
2023-04-21T22:06:42.568Z,99165.75
2023-04-21T22:09:10.438Z,99155.91
2023-04-21T22:11:38.300Z,99162.22
2023-04-21T22:14:19.034Z,99163.53
2023-04-21T22:16:50.793Z,99168.78
2023-04-21T22:19:19.323Z,99167.72
2023-04-21T22:21:47.459Z,99164.13
2023-04-21T22:24:15.823Z,99167.56
2023-04-21T22:26:43.602Z,99174.47
2023-04-21T22:29:11.308Z,99174.06
2023-04-21T22:31:39.093Z,99174.38
2023-04-21T22:34:06.827Z,99181.16
2023-04-21T22:36:34.955Z,99175.41
2023-04-21T22:39:02.767Z,99179.53
2023-04-21T22:41:30.425Z,99183.59
2023-04-21T22:43:58.426Z,99175.50
2023-04-21T22:46:26.200Z,99175.34
2023-04-21T22:48:54.972Z,99172.75
2023-04-21T22:51:23.273Z,99168.13
2023-04-21T22:53:51.065Z,99169.69
2023-04-21T22:56:18.694Z,99176.59
2023-04-21T22:58:46.346Z,99161.47
2023-04-21T23:01:14.117Z,99165.69
2023-04-21T23:03:41.938Z,99169.34
2023-04-21T23:06:11.475Z,99175.41
2023-04-21T23:08:39.085Z,99171.63
2023-04-21T23:11:06.775Z,99178.38
2023-04-21T23:13:34.991Z,99174.59
2023-04-21T23:16:02.692Z,99174.47
2023-04-21T23:18:30.596Z,99179.66
2023-04-21T23:20:58.428Z,99176.81
2023-04-21T23:23:26.166Z,99170.41
2023-04-21T23:25:54.425Z,99176.28
2023-04-21T23:28:22.974Z,99169.69
2023-04-21T23:30:50.720Z,99161.41
2023-04-21T23:33:18.488Z,99164.50
2023-04-21T23:35:46.179Z,99161.41
2023-04-21T23:38:14.231Z,99167.97
2023-04-21T23:40:41.859Z,99162.19
2023-04-21T23:43:09.481Z,99164.28
2023-04-21T23:45:37.322Z,99164.81
2023-04-21T23:48:05.195Z,99164.41
2023-04-21T23:50:33.999Z,99173.50
2023-04-21T23:53:01.838Z,99181.88
2023-04-21T23:55:29.495Z,99193.91
2023-04-21T23:57:57.083Z,99183.94
